Erandio, Spain
Current Conditions -  °F | °C
As of 9:30 AM on Wednesday 26 Nov 2014 (Local Time) from LEBB Reporting Station
Overcast Overcast  
Wind Chill: 13°   Ceiling: 2200
Heat Index: 13°   Visibility: 4mi
Dew Point: 12°   Wind: 1mph
Humidity: 94%   Direction: NA
Pressure: 29.94"   Gusts: NA
Location:  43.31°N, 2.95°W
Report Text: LEBB 260830Z VRB01KT 7000 SCT015 OVC022 13/12 Q1014 NOSIG
Loading
Personal Weather Stations






























Interactive Weather Map New forecast layout! Learn more

10-Day Weather Forecast

Advertisements
Track Severe Weather on mobile